createdAt,value
2018-03-30T00:02:24.283Z,3.70
2018-03-30T00:04:52.035Z,3.60
2018-03-30T00:07:19.486Z,3.70
2018-03-30T00:09:55.860Z,3.70
2018-03-30T00:12:23.623Z,3.70
2018-03-30T00:14:51.080Z,3.70
2018-03-30T00:17:18.547Z,3.70
2018-03-30T00:19:46.004Z,3.70
2018-03-30T00:22:13.696Z,3.70
2018-03-30T00:24:41.152Z,3.70
2018-03-30T00:27:08.712Z,3.70
2018-03-30T00:29:36.375Z,3.70
2018-03-30T00:32:03.832Z,3.70
2018-03-30T00:34:31.367Z,3.70
2018-03-30T00:36:59.124Z,3.80
2018-03-30T00:39:26.811Z,3.80
2018-03-30T00:41:55.271Z,3.80
2018-03-30T00:44:22.812Z,3.80
2018-03-30T00:46:50.495Z,3.90
2018-03-30T00:49:18.264Z,3.90
2018-03-30T00:51:45.723Z,3.90
2018-03-30T00:54:13.479Z,4.00
2018-03-30T00:56:41.074Z,4.00
2018-03-30T00:59:09.296Z,4.00
2018-03-30T01:01:36.747Z,4.00
2018-03-30T01:04:04.216Z,4.10
2018-03-30T01:06:31.691Z,4.00
2018-03-30T01:08:59.164Z,4.00
2018-03-30T01:11:26.628Z,4.00
2018-03-30T01:13:54.376Z,4.10
2018-03-30T01:16:21.845Z,4.10
2018-03-30T01:18:49.595Z,4.10
2018-03-30T01:21:17.362Z,4.10
2018-03-30T01:23:45.128Z,4.10
2018-03-30T01:26:12.799Z,4.10
2018-03-30T01:28:40.252Z,4.20
2018-03-30T01:31:07.731Z,4.10
2018-03-30T01:33:35.270Z,4.20
2018-03-30T01:36:02.736Z,4.20
2018-03-30T01:38:30.488Z,4.30
2018-03-30T01:40:58.206Z,4.30
2018-03-30T01:43:25.660Z,4.30
2018-03-30T01:45:53.132Z,4.30
2018-03-30T01:48:20.632Z,4.40
2018-03-30T01:50:48.087Z,4.40
2018-03-30T01:53:15.549Z,4.40
2018-03-30T01:55:43.220Z,4.40
2018-03-30T01:58:10.687Z,4.40
2018-03-30T02:00:38.135Z,4.50
2018-03-30T02:03:06.612Z,4.60
2018-03-30T02:05:34.378Z,4.50
2018-03-30T02:08:01.824Z,4.60
2018-03-30T02:10:29.593Z,4.60
2018-03-30T02:12:57.356Z,4.70
2018-03-30T02:15:24.817Z,4.60
2018-03-30T02:17:52.263Z,4.70
2018-03-30T02:20:19.724Z,4.70
2018-03-30T02:22:47.503Z,4.60
2018-03-30T02:25:15.180Z,4.70
2018-03-30T02:27:42.723Z,4.60
2018-03-30T02:30:10.176Z,4.60
2018-03-30T02:32:37.635Z,4.60
2018-03-30T02:35:05.107Z,4.50
2018-03-30T02:37:32.557Z,4.60
2018-03-30T02:40:00.019Z,4.60
2018-03-30T02:42:27.489Z,4.60
2018-03-30T02:44:55.236Z,4.60
2018-03-30T02:47:22.694Z,4.60
2018-03-30T02:49:50.202Z,4.60
2018-03-30T02:52:17.875Z,4.60
2018-03-30T02:54:45.328Z,4.70
2018-03-30T02:57:12.827Z,4.60
2018-03-30T02:59:40.593Z,4.60
2018-03-30T03:02:08.049Z,4.60
2018-03-30T03:04:35.808Z,4.60
2018-03-30T03:07:03.282Z,4.60
2018-03-30T03:09:30.737Z,4.60
2018-03-30T03:11:58.197Z,4.60
2018-03-30T03:14:25.656Z,4.60
2018-03-30T03:16:54.643Z,4.60
2018-03-30T03:19:22.408Z,4.60
2018-03-30T03:21:49.872Z,4.60
2018-03-30T03:24:17.568Z,4.60
2018-03-30T03:26:45.002Z,4.50
2018-03-30T03:29:12.469Z,4.50
2018-03-30T03:31:40.017Z,4.50
2018-03-30T03:34:07.680Z,4.50
2018-03-30T03:36:35.136Z,4.50
2018-03-30T03:39:02.684Z,4.50
2018-03-30T03:41:30.448Z,4.50
2018-03-30T03:43:57.912Z,4.50
2018-03-30T03:46:25.379Z,4.50
2018-03-30T03:48:53.133Z,4.50
2018-03-30T03:51:20.588Z,4.50
2018-03-30T03:53:48.048Z,4.50
2018-03-30T03:56:15.513Z,4.60
2018-03-30T03:58:43.272Z,4.50
2018-03-30T04:01:11.038Z,4.60
2018-03-30T04:03:38.711Z,4.50
2018-03-30T04:06:06.177Z,4.60
2018-03-30T04:08:33.628Z,4.50
2018-03-30T04:11:01.084Z,4.60
2018-03-30T04:13:29.312Z,4.50
2018-03-30T04:15:57.012Z,4.50
2018-03-30T04:18:24.472Z,4.50
2018-03-30T04:20:51.915Z,4.50
2018-03-30T04:23:19.375Z,4.40
2018-03-30T04:25:47.149Z,4.40
2018-03-30T04:28:14.604Z,4.40
2018-03-30T04:30:42.062Z,4.40
2018-03-30T04:33:09.682Z,4.30
2018-03-30T04:35:37.133Z,4.30
2018-03-30T04:38:04.603Z,4.30
2018-03-30T04:40:32.207Z,4.30
2018-03-30T04:42:59.976Z,4.30
2018-03-30T04:45:27.432Z,4.30
2018-03-30T04:47:54.887Z,4.30
2018-03-30T04:50:22.339Z,4.30
2018-03-30T04:52:51.497Z,4.30
2018-03-30T04:55:19.053Z,4.30
2018-03-30T04:57:46.718Z,4.30
2018-03-30T05:00:14.177Z,4.30
2018-03-30T05:02:41.696Z,4.20
2018-03-30T05:05:10.136Z,4.20
2018-03-30T05:07:37.628Z,4.20
2018-03-30T05:10:05.088Z,4.20
2018-03-30T05:12:32.535Z,4.30
2018-03-30T05:14:59.993Z,4.30
2018-03-30T05:17:27.760Z,4.30
2018-03-30T05:19:55.239Z,4.30
2018-03-30T05:22:22.900Z,4.30
2018-03-30T05:24:51.215Z,4.30
2018-03-30T05:27:18.687Z,4.30
2018-03-30T05:29:46.135Z,4.20
2018-03-30T05:32:13.690Z,4.20
2018-03-30T05:34:41.146Z,4.20
2018-03-30T05:37:08.608Z,4.20
2018-03-30T05:39:36.091Z,4.20
2018-03-30T05:42:03.556Z,4.30
2018-03-30T05:44:31.008Z,4.40
2018-03-30T05:46:58.688Z,4.40
2018-03-30T05:49:26.142Z,4.30
2018-03-30T05:51:53.643Z,4.30
2018-03-30T05:54:21.162Z,4.30
2018-03-30T05:56:48.619Z,4.30
2018-03-30T05:59:16.079Z,4.30
2018-03-30T06:01:43.532Z,4.30
2018-03-30T06:04:11.112Z,4.30
2018-03-30T06:06:39.375Z,4.30
2018-03-30T06:09:06.823Z,4.30
2018-03-30T06:11:34.288Z,4.40
2018-03-30T06:14:01.753Z,4.50
2018-03-30T06:16:29.381Z,4.50
2018-03-30T06:18:56.928Z,4.70
2018-03-30T06:21:24.452Z,4.90
2018-03-30T06:23:52.669Z,5.00
2018-03-30T06:26:20.147Z,5.10
2018-03-30T06:28:47.688Z,5.20
2018-03-30T06:31:15.200Z,5.20
2018-03-30T06:33:42.957Z,5.30
2018-03-30T06:36:10.439Z,5.40
2018-03-30T06:38:37.890Z,5.50
2018-03-30T06:41:05.788Z,5.60
2018-03-30T06:43:33.306Z,5.80
2018-03-30T06:46:00.855Z,5.70
2018-03-30T06:48:28.307Z,5.90
2018-03-30T06:50:55.784Z,5.80
2018-03-30T06:53:23.545Z,5.90
2018-03-30T06:55:51.301Z,5.90
2018-03-30T06:58:19.064Z,6.00
2018-03-30T07:00:46.827Z,6.00
2018-03-30T07:03:14.283Z,6.10
2018-03-30T07:05:41.902Z,6.10
2018-03-30T07:08:09.509Z,6.10
2018-03-30T07:10:37.271Z,6.10
2018-03-30T07:13:04.732Z,6.10
2018-03-30T07:15:32.187Z,6.10
2018-03-30T07:17:59.657Z,6.10
2018-03-30T07:20:27.104Z,6.10
2018-03-30T07:22:54.871Z,6.10
2018-03-30T07:25:22.328Z,6.20
2018-03-30T07:27:50.082Z,6.30
2018-03-30T07:30:17.877Z,6.30
2018-03-30T07:32:45.628Z,6.40
2018-03-30T07:35:13.163Z,6.40
2018-03-30T07:37:40.762Z,6.50
2018-03-30T07:40:08.307Z,6.50
2018-03-30T07:42:35.760Z,6.60
2018-03-30T07:45:03.220Z,6.60
2018-03-30T07:47:30.984Z,6.70
2018-03-30T07:49:58.777Z,6.70
2018-03-30T07:52:26.517Z,6.70
2018-03-30T07:54:53.971Z,6.80
2018-03-30T07:57:21.439Z,6.80
2018-03-30T07:59:49.200Z,7.00
2018-03-30T08:02:16.659Z,7.10
2018-03-30T08:04:44.419Z,7.20
2018-03-30T08:07:11.866Z,7.30
2018-03-30T08:09:39.352Z,7.50
2018-03-30T08:12:06.816Z,7.70
2018-03-30T08:14:34.561Z,8.00
2018-03-30T08:17:02.253Z,8.20
2018-03-30T08:19:29.756Z,8.40
2018-03-30T08:21:57.224Z,8.60
2018-03-30T08:24:24.688Z,8.80
2018-03-30T08:26:52.156Z,8.90
2018-03-30T08:29:19.630Z,9.00
2018-03-30T08:31:47.092Z,9.20
2018-03-30T08:34:14.745Z,9.50
2018-03-30T08:36:42.292Z,9.80
2018-03-30T08:39:10.064Z,10.10
2018-03-30T08:41:37.532Z,10.20
2018-03-30T08:44:04.999Z,10.30
2018-03-30T08:46:32.460Z,10.40
2018-03-30T08:49:00.200Z,10.40
2018-03-30T08:51:27.785Z,10.60
2018-03-30T08:53:56.015Z,10.80
2018-03-30T08:56:23.487Z,10.80
2018-03-30T08:58:50.988Z,11.00
2018-03-30T09:01:18.877Z,11.30
2018-03-30T09:03:46.345Z,11.30
2018-03-30T09:06:13.852Z,11.50
2018-03-30T09:08:41.399Z,11.50
2018-03-30T09:11:09.097Z,11.50
2018-03-30T09:13:36.549Z,11.50
2018-03-30T09:16:04.080Z,11.70
2018-03-30T09:18:31.762Z,13.80
2018-03-30T09:20:59.309Z,16.00
2018-03-30T09:23:26.772Z,17.90
2018-03-30T09:25:54.292Z,18.20
2018-03-30T09:28:21.759Z,18.90
2018-03-30T09:30:49.469Z,19.80
2018-03-30T09:33:23.352Z,20.90
2018-03-30T09:35:52.324Z,20.90
2018-03-30T09:38:19.784Z,20.90
2018-03-30T09:40:47.249Z,21.60
2018-03-30T09:43:14.721Z,22.10
2018-03-30T09:45:42.183Z,23.00
2018-03-30T09:48:09.963Z,22.90
2018-03-30T09:50:37.624Z,22.70
2018-03-30T09:53:05.163Z,22.80
2018-03-30T09:55:32.632Z,23.30
2018-03-30T09:58:00.352Z,24.10
2018-03-30T10:00:27.803Z,24.10
2018-03-30T10:02:55.264Z,23.20
2018-03-30T10:05:22.725Z,22.30
2018-03-30T10:07:50.184Z,21.80
2018-03-30T10:10:17.684Z,22.50
2018-03-30T10:12:45.140Z,22.70
2018-03-30T10:15:12.599Z,23.10
2018-03-30T10:17:40.363Z,22.70
2018-03-30T10:20:07.831Z,22.30
2018-03-30T10:22:35.585Z,22.00
2018-03-30T10:25:03.348Z,21.80
2018-03-30T10:27:31.112Z,22.40
2018-03-30T10:29:58.801Z,21.90
2018-03-30T10:32:26.274Z,21.00
2018-03-30T10:34:53.798Z,21.00
2018-03-30T10:37:21.559Z,21.20
2018-03-30T10:39:49.019Z,21.10
2018-03-30T10:42:16.473Z,21.20
2018-03-30T10:44:45.776Z,19.50
2018-03-30T10:47:14.739Z,18.90
2018-03-30T10:49:42.227Z,18.90
2018-03-30T10:52:09.774Z,19.10
2018-03-30T10:54:37.233Z,18.80
2018-03-30T10:57:04.837Z,19.00
2018-03-30T10:59:32.287Z,19.70
2018-03-30T11:01:59.825Z,19.70
2018-03-30T11:04:27.275Z,19.80
2018-03-30T11:06:55.029Z,20.10
2018-03-30T11:09:22.726Z,20.70
2018-03-30T11:11:50.248Z,21.10
2018-03-30T11:14:17.741Z,20.70
2018-03-30T11:16:45.320Z,20.10
2018-03-30T11:19:13.571Z,22.60
2018-03-30T11:21:41.259Z,22.60
2018-03-30T11:24:08.793Z,23.50
2018-03-30T11:26:36.248Z,24.00
2018-03-30T11:29:04.020Z,24.40
2018-03-30T11:31:31.480Z,24.50
2018-03-30T11:33:58.939Z,23.60
2018-03-30T11:36:26.604Z,23.00
2018-03-30T11:38:54.068Z,22.90
2018-03-30T11:41:21.612Z,24.60
2018-03-30T11:43:49.376Z,25.40
2018-03-30T11:46:17.138Z,24.60
2018-03-30T11:48:44.615Z,25.00
2018-03-30T11:51:12.063Z,25.90
2018-03-30T11:53:39.736Z,26.00
2018-03-30T11:56:07.200Z,25.40
2018-03-30T11:58:34.662Z,24.90
2018-03-30T12:01:02.112Z,24.50
2018-03-30T12:03:29.576Z,24.10
2018-03-30T12:05:57.041Z,23.10
2018-03-30T12:08:24.491Z,22.70
2018-03-30T12:10:52.160Z,21.40
2018-03-30T12:13:20.375Z,19.60
2018-03-30T12:15:47.828Z,19.60
2018-03-30T12:18:15.299Z,19.20
2018-03-30T12:20:42.772Z,19.50
2018-03-30T12:23:10.231Z,20.30
2018-03-30T12:25:37.684Z,21.50
2018-03-30T12:28:05.163Z,22.10
2018-03-30T12:30:32.615Z,23.10
2018-03-30T12:33:00.072Z,24.50
2018-03-30T12:35:27.534Z,25.00
2018-03-30T12:37:55.295Z,26.20
2018-03-30T12:40:23.060Z,27.00
2018-03-30T12:42:50.680Z,27.00
2018-03-30T12:45:18.196Z,25.50
2018-03-30T12:47:45.749Z,24.90
2018-03-30T12:50:13.213Z,24.50
2018-03-30T12:52:40.968Z,24.40
2018-03-30T12:55:09.279Z,23.60
2018-03-30T12:57:36.812Z,22.90
2018-03-30T13:00:04.568Z,22.80
2018-03-30T13:02:32.333Z,22.20
2018-03-30T13:04:59.797Z,22.00
2018-03-30T13:07:27.257Z,22.30
2018-03-30T13:09:55.011Z,22.10
2018-03-30T13:12:22.478Z,21.40
2018-03-30T13:14:50.245Z,20.70
2018-03-30T13:17:17.696Z,20.30
2018-03-30T13:19:45.168Z,20.40
2018-03-30T13:22:12.922Z,19.90
2018-03-30T13:24:41.912Z,19.30
2018-03-30T13:27:09.380Z,19.20
2018-03-30T13:29:37.044Z,18.90
2018-03-30T13:32:04.592Z,18.50
2018-03-30T13:34:32.052Z,18.20
2018-03-30T13:36:59.549Z,17.70
2018-03-30T13:39:27.811Z,18.20
2018-03-30T13:41:55.272Z,18.10
2018-03-30T13:44:22.831Z,18.30
2018-03-30T13:46:50.567Z,18.80
2018-03-30T13:49:19.564Z,19.40
2018-03-30T13:51:53.471Z,19.50
2018-03-30T13:54:31.840Z,19.50
2018-03-30T13:57:07.743Z,19.30
2018-03-30T13:59:35.200Z,19.20
2018-03-30T14:02:09.324Z,19.10
2018-03-30T14:04:44.405Z,18.70
2018-03-30T14:10:12.659Z,18.30
2018-03-30T14:12:50.008Z,18.30
2018-03-30T14:15:18.315Z,18.30
2018-03-30T14:18:06.356Z,18.00
2018-03-30T14:20:33.829Z,17.70
2018-03-30T14:23:19.788Z,17.70
2018-03-30T14:25:50.851Z,17.60
2018-03-30T14:28:22.917Z,17.30
2018-03-30T14:31:15.156Z,17.40
2018-03-30T14:33:42.724Z,17.50
2018-03-30T14:39:33.627Z,16.70
2018-03-30T14:42:01.084Z,16.80
2018-03-30T14:44:43.522Z,16.60
2018-03-30T14:47:12.512Z,16.20
2018-03-30T14:49:40.840Z,16.30
2018-03-30T14:52:24.316Z,16.20
2018-03-30T14:54:55.584Z,16.20
2018-03-30T14:57:27.528Z,16.00
2018-03-30T14:59:57.004Z,16.00
2018-03-30T15:02:31.920Z,16.10
2018-03-30T15:05:01.576Z,16.10
2018-03-30T15:07:50.652Z,16.10
2018-03-30T15:10:33.976Z,16.20
2018-03-30T15:13:14.035Z,16.20
2018-03-30T15:15:42.971Z,16.20
2018-03-30T15:18:20.620Z,16.20
2018-03-30T15:20:50.820Z,16.10
2018-03-30T15:23:36.112Z,16.10
2018-03-30T15:26:06.498Z,15.80
2018-03-30T15:28:36.563Z,15.60
2018-03-30T15:34:02.483Z,15.60
2018-03-30T15:36:43.500Z,15.70
2018-03-30T15:39:10.982Z,15.50
2018-03-30T15:41:39.316Z,15.50
2018-03-30T15:44:07.084Z,15.40
2018-03-30T15:46:35.468Z,15.40
2018-03-30T15:49:03.133Z,15.20
2018-03-30T15:51:35.971Z,15.40
2018-03-30T15:54:03.056Z,15.30
2018-03-30T15:56:36.351Z,15.10
2018-03-30T15:59:04.113Z,15.00
2018-03-30T16:01:31.571Z,15.10
2018-03-30T16:03:59.036Z,15.10
2018-03-30T16:06:26.499Z,15.00
2018-03-30T16:08:54.256Z,14.80
2018-03-30T16:11:25.200Z,14.70
2018-03-30T16:13:52.855Z,14.40
2018-03-30T16:16:20.341Z,14.30
2018-03-30T16:18:56.469Z,14.30
2018-03-30T16:21:23.433Z,14.30
2018-03-30T16:23:50.680Z,14.30
2018-03-30T16:26:17.652Z,14.20
2018-03-30T16:28:45.399Z,14.20
2018-03-30T16:31:12.508Z,14.20
2018-03-30T16:33:39.480Z,14.20
2018-03-30T16:36:06.743Z,14.30
2018-03-30T16:38:33.887Z,14.30
2018-03-30T16:41:00.867Z,14.30
2018-03-30T16:43:28.682Z,14.20
2018-03-30T16:45:55.656Z,14.20
2018-03-30T16:48:22.898Z,14.10
2018-03-30T16:50:50.007Z,14.10
2018-03-30T16:53:16.932Z,14.00
2018-03-30T16:55:44.256Z,14.00
2018-03-30T16:58:11.480Z,13.90
2018-03-30T17:00:38.452Z,13.90
2018-03-30T17:03:05.446Z,13.80
2018-03-30T17:05:32.411Z,13.80
2018-03-30T17:07:59.380Z,13.70
2018-03-30T17:10:26.359Z,13.60
2018-03-30T17:12:54.316Z,13.60
2018-03-30T17:15:21.279Z,13.60
2018-03-30T17:17:48.607Z,13.60
2018-03-30T17:20:15.599Z,13.40
2018-03-30T17:22:42.603Z,13.30
2018-03-30T17:25:09.844Z,13.30
2018-03-30T17:27:36.972Z,13.30
2018-03-30T17:30:04.060Z,13.20
2018-03-30T17:32:31.035Z,13.20
2018-03-30T17:34:58.129Z,13.10
2018-03-30T17:37:25.117Z,13.10
2018-03-30T17:39:52.112Z,13.00
2018-03-30T17:42:19.100Z,13.00
2018-03-30T17:44:46.067Z,12.90
2018-03-30T17:47:13.188Z,13.00
2018-03-30T17:49:40.213Z,12.90
2018-03-30T17:52:07.506Z,12.80
2018-03-30T17:54:34.649Z,12.80
2018-03-30T17:57:01.710Z,12.80
2018-03-30T17:59:28.947Z,12.70
2018-03-30T18:01:55.920Z,12.70
2018-03-30T18:04:23.656Z,12.70
2018-03-30T18:06:50.635Z,12.70
2018-03-30T18:09:17.704Z,12.70
2018-03-30T18:11:44.675Z,12.60
2018-03-30T18:14:11.658Z,12.60
2018-03-30T18:16:39.392Z,12.50
2018-03-30T18:19:06.376Z,12.40
2018-03-30T18:21:33.360Z,12.50
2018-03-30T18:24:00.329Z,12.40
2018-03-30T18:26:27.600Z,12.40
2018-03-30T18:28:56.293Z,12.30
2018-03-30T18:31:23.269Z,12.40
2018-03-30T18:33:50.239Z,12.40
2018-03-30T18:36:17.436Z,12.40
2018-03-30T18:38:44.412Z,12.30
2018-03-30T18:41:11.412Z,12.20
2018-03-30T18:43:38.580Z,12.10
2018-03-30T18:46:05.547Z,12.10
2018-03-30T18:48:33.289Z,12.10
2018-03-30T18:51:00.336Z,12.00
2018-03-30T18:53:27.464Z,12.20
2018-03-30T18:55:54.428Z,12.10
2018-03-30T18:58:21.476Z,12.10
2018-03-30T19:00:48.451Z,12.10
2018-03-30T19:03:16.188Z,12.00
2018-03-30T19:05:43.167Z,12.00
2018-03-30T19:08:10.392Z,12.10
2018-03-30T19:10:37.431Z,12.00
2018-03-30T19:13:04.696Z,12.10
2018-03-30T19:15:31.668Z,12.10
2018-03-30T19:17:59.612Z,12.00
2018-03-30T19:20:26.759Z,12.00
2018-03-30T19:22:53.924Z,12.00
2018-03-30T19:25:21.068Z,11.90
2018-03-30T19:27:48.215Z,12.00
2018-03-30T19:30:15.377Z,11.90
2018-03-30T19:32:42.355Z,11.80
2018-03-30T19:35:09.369Z,11.70
2018-03-30T19:37:36.340Z,11.60
2018-03-30T19:40:03.330Z,11.40
2018-03-30T19:42:30.403Z,11.30
2018-03-30T19:44:57.384Z,11.20
2018-03-30T19:47:25.192Z,11.20
2018-03-30T19:49:52.190Z,11.10
2018-03-30T19:52:19.167Z,11.00
2018-03-30T19:54:46.260Z,10.90
2018-03-30T19:57:13.408Z,10.80
2018-03-30T19:59:40.380Z,10.70
2018-03-30T20:02:08.128Z,10.50
2018-03-30T20:04:35.108Z,10.30
2018-03-30T20:07:02.096Z,10.20
2018-03-30T20:09:29.164Z,10.00
2018-03-30T20:11:56.151Z,10.00
2018-03-30T20:14:23.124Z,9.90
2018-03-30T20:16:50.309Z,9.90
2018-03-30T20:19:17.468Z,9.80
2018-03-30T20:21:44.458Z,9.70
2018-03-30T20:24:11.429Z,9.70
2018-03-30T20:26:38.404Z,9.60
2018-03-30T20:29:05.385Z,9.60
2018-03-30T20:31:32.364Z,9.40
2018-03-30T20:33:59.331Z,9.40
2018-03-30T20:36:26.318Z,9.30
2018-03-30T20:38:53.292Z,9.30
2018-03-30T20:41:20.277Z,9.20
2018-03-30T20:43:47.252Z,9.10
2018-03-30T20:46:15.045Z,9.00
2018-03-30T20:48:42.122Z,9.00
2018-03-30T20:51:09.083Z,8.90
2018-03-30T20:53:36.340Z,8.90
2018-03-30T20:56:03.493Z,8.80
2018-03-30T20:58:30.456Z,8.70
2018-03-30T21:00:58.417Z,8.50
2018-03-30T21:03:25.557Z,8.50
2018-03-30T21:05:52.531Z,8.50
2018-03-30T21:08:20.311Z,8.40
2018-03-30T21:10:48.092Z,8.40
2018-03-30T21:13:15.067Z,8.40
2018-03-30T21:15:42.044Z,8.50
2018-03-30T21:18:09.779Z,8.40
2018-03-30T21:20:36.848Z,8.50
2018-03-30T21:23:04.016Z,8.50
2018-03-30T21:25:31.767Z,8.40
2018-03-30T21:27:58.914Z,8.30
2018-03-30T21:30:25.892Z,8.40
2018-03-30T21:32:52.875Z,8.30
2018-03-30T21:35:19.864Z,8.30
2018-03-30T21:37:46.841Z,8.30
2018-03-30T21:40:13.815Z,8.30
2018-03-30T21:42:40.783Z,8.30
2018-03-30T21:45:07.760Z,8.30
2018-03-30T21:47:34.731Z,8.20
2018-03-30T21:50:01.703Z,8.30
2018-03-30T21:52:28.684Z,8.30
2018-03-30T21:54:55.914Z,8.20
2018-03-30T21:57:22.872Z,8.20
2018-03-30T21:59:50.032Z,8.20
2018-03-30T22:02:17.179Z,8.20
2018-03-30T22:04:44.147Z,8.30
2018-03-30T22:07:11.892Z,8.30
2018-03-30T22:09:38.936Z,8.20
2018-03-30T22:12:05.902Z,8.40
2018-03-30T22:14:33.860Z,8.20
2018-03-30T22:17:01.008Z,8.20
2018-03-30T22:19:28.152Z,8.20
2018-03-30T22:21:55.136Z,8.30
2018-03-30T22:24:22.104Z,8.30
2018-03-30T22:26:49.082Z,8.30
2018-03-30T22:29:16.068Z,8.30
2018-03-30T22:31:43.293Z,8.20
2018-03-30T22:34:10.264Z,8.10
2018-03-30T22:36:38.213Z,8.10
2018-03-30T22:39:05.435Z,8.00
2018-03-30T22:41:32.512Z,8.00
2018-03-30T22:43:59.660Z,8.00
2018-03-30T22:46:26.632Z,8.00
2018-03-30T22:48:54.585Z,7.90
2018-03-30T22:51:21.566Z,7.90
2018-03-30T22:53:48.637Z,7.80
2018-03-30T22:56:15.610Z,7.80
2018-03-30T22:58:42.880Z,7.80
2018-03-30T23:01:09.844Z,7.80
2018-03-30T23:03:37.788Z,7.70
2018-03-30T23:06:04.769Z,7.60
2018-03-30T23:08:32.508Z,7.60
2018-03-30T23:10:59.485Z,7.60
2018-03-30T23:13:26.453Z,7.60
2018-03-30T23:15:53.545Z,7.50
2018-03-30T23:18:20.528Z,7.50
2018-03-30T23:20:47.535Z,7.50
2018-03-30T23:23:16.038Z,7.50
2018-03-30T23:25:43.782Z,7.50
2018-03-30T23:28:10.833Z,7.50
2018-03-30T23:30:37.795Z,7.50
2018-03-30T23:33:05.531Z,7.40
2018-03-30T23:35:32.512Z,7.40
2018-03-30T23:37:59.478Z,7.50
2018-03-30T23:40:26.549Z,7.40
2018-03-30T23:42:53.523Z,7.40
2018-03-30T23:45:20.495Z,7.40
2018-03-30T23:47:47.472Z,7.30
2018-03-30T23:50:14.443Z,7.40
2018-03-30T23:52:41.427Z,7.50
2018-03-30T23:55:08.404Z,7.60
2018-03-30T23:57:35.407Z,7.50
